createdAt,value
2022-12-15T00:02:25.332Z,97557.72
2022-12-15T00:05:10.394Z,97559.28
2022-12-15T00:07:55.779Z,97559.72
2022-12-15T00:10:42.245Z,97556.31
2022-12-15T00:13:29.185Z,97583.22
2022-12-15T00:16:14.966Z,97571.78
2022-12-15T00:19:00.038Z,97575.22
2022-12-15T00:21:45.251Z,97574.81
2022-12-15T00:24:30.651Z,97584.91
2022-12-15T00:27:17.324Z,97587.97
2022-12-15T00:30:02.890Z,97583.75
2022-12-15T00:32:48.284Z,97581.72
2022-12-15T00:35:33.584Z,97572.94
2022-12-15T00:38:25.517Z,97584.91
2022-12-15T00:40:59.178Z,97584.81
2022-12-15T00:43:29.289Z,97585.16
2022-12-15T00:46:15.411Z,97599.22
2022-12-15T00:48:43.176Z,97589.59
2022-12-15T00:51:10.228Z,97597.25
2022-12-15T00:53:55.494Z,97591.22
2022-12-15T00:56:40.978Z,97611.78
2022-12-15T00:59:27.953Z,97613.63
2022-12-15T01:02:13.558Z,97615.09
2022-12-15T01:04:58.983Z,97622.41
2022-12-15T01:07:44.161Z,97620.50
2022-12-15T01:10:36.078Z,97624.06
2022-12-15T01:13:21.891Z,97631.66
2022-12-15T01:16:08.847Z,97619.53
2022-12-15T01:18:54.441Z,97631.63
2022-12-15T01:21:24.872Z,97632.25
2022-12-15T01:23:55.129Z,97618.50
2022-12-15T01:26:22.915Z,97615.81
2022-12-15T01:28:50.689Z,97622.69
2022-12-15T01:31:19.802Z,97640.69
2022-12-15T01:33:47.523Z,97636.25
2022-12-15T01:36:15.550Z,97648.94
2022-12-15T01:38:43.890Z,97637.94
2022-12-15T01:41:12.440Z,97640.34
2022-12-15T01:43:42.029Z,97641.75
2022-12-15T01:46:11.310Z,97642.75
2022-12-15T01:48:48.127Z,97638.59
2022-12-15T01:51:19.527Z,97636.63
2022-12-15T01:53:54.558Z,97633.38
2022-12-15T01:56:24.397Z,97642.06
2022-12-15T01:58:55.229Z,97640.00
2022-12-15T02:01:23.372Z,97637.94
2022-12-15T02:03:52.719Z,97633.34
2022-12-15T02:06:22.672Z,97636.63
2022-12-15T02:08:54.301Z,97621.56
2022-12-15T02:11:57.416Z,97622.63
2022-12-15T02:14:36.389Z,97623.09
2022-12-15T02:17:15.105Z,97627.44
2022-12-15T02:20:16.999Z,97636.53
2022-12-15T02:23:04.491Z,97633.66
2022-12-15T02:25:50.911Z,97632.50
2022-12-15T02:28:32.808Z,97631.75
2022-12-15T02:31:22.314Z,97641.63
2022-12-15T02:33:55.748Z,97639.19
2022-12-15T02:36:31.315Z,97642.28
2022-12-15T02:38:59.165Z,97643.09
2022-12-15T02:41:35.757Z,97648.06
2022-12-15T02:44:06.799Z,97635.44
2022-12-15T02:46:46.538Z,97642.84
2022-12-15T02:49:23.546Z,97646.28
2022-12-15T02:52:03.425Z,97649.28
2022-12-15T02:54:42.545Z,97655.34
2022-12-15T02:57:19.492Z,97651.63
2022-12-15T02:59:55.554Z,97661.16
2022-12-15T03:02:27.565Z,97670.13
2022-12-15T03:04:56.443Z,97660.28
2022-12-15T03:07:27.704Z,97657.34
2022-12-15T03:09:57.137Z,97658.06
2022-12-15T03:12:25.039Z,97670.97
2022-12-15T03:14:52.764Z,97662.97
2022-12-15T03:17:20.430Z,97659.16
2022-12-15T03:19:52.237Z,97659.75
2022-12-15T03:22:20.313Z,97655.28
2022-12-15T03:24:48.305Z,97653.41
2022-12-15T03:27:16.543Z,97666.09
2022-12-15T03:29:44.232Z,97663.53
2022-12-15T03:32:12.024Z,97671.06
2022-12-15T03:34:39.808Z,97681.66
2022-12-15T03:37:09.330Z,97678.25
2022-12-15T03:39:37.006Z,97683.34
2022-12-15T03:42:04.867Z,97689.84
2022-12-15T03:44:32.530Z,97679.75
2022-12-15T03:47:03.521Z,97688.19
2022-12-15T03:49:31.616Z,97674.50
2022-12-15T03:51:59.372Z,97672.84
2022-12-15T03:54:28.650Z,97685.00
2022-12-15T03:56:56.365Z,97695.31
2022-12-15T03:59:24.088Z,97698.19
2022-12-15T04:01:52.021Z,97699.97
2022-12-15T04:04:19.734Z,97697.97
2022-12-15T04:06:47.663Z,97698.13
2022-12-15T04:09:15.341Z,97709.88
2022-12-15T04:11:44.427Z,97711.31
2022-12-15T04:14:12.288Z,97709.59
2022-12-15T04:16:40.133Z,97710.97
2022-12-15T04:19:25.747Z,97705.38
2022-12-15T04:21:53.564Z,97715.00
2022-12-15T04:24:38.932Z,97723.53
2022-12-15T04:27:25.755Z,97728.13
2022-12-15T04:30:10.970Z,97730.19
2022-12-15T04:32:56.521Z,97732.75
2022-12-15T04:35:41.910Z,97718.75
2022-12-15T04:38:27.388Z,97710.94
2022-12-15T04:41:12.535Z,97714.28
2022-12-15T04:43:59.571Z,97705.06
2022-12-15T04:46:44.904Z,97708.53
2022-12-15T04:49:30.069Z,97704.06
2022-12-15T04:52:16.630Z,97707.31
2022-12-15T04:55:01.797Z,97704.56
2022-12-15T04:57:47.329Z,97705.81
2022-12-15T05:00:34.435Z,97716.16
2022-12-15T05:03:23.464Z,97717.66
2022-12-15T05:06:08.914Z,97721.31
2022-12-15T05:08:54.290Z,97725.41
2022-12-15T05:11:39.621Z,97724.66
2022-12-15T05:14:25.274Z,97725.56
2022-12-15T05:17:12.035Z,97724.94
2022-12-15T05:19:57.524Z,97731.00
2022-12-15T05:22:43.066Z,97737.28
2022-12-15T05:25:28.492Z,97738.06
2022-12-15T05:28:14.178Z,97734.84
2022-12-15T05:30:59.658Z,97739.28
2022-12-15T05:33:31.835Z,97734.59
2022-12-15T05:35:59.791Z,97729.38
2022-12-15T05:38:27.505Z,97730.91
2022-12-15T05:40:58.484Z,97724.19
2022-12-15T05:43:27.000Z,97718.44
2022-12-15T05:45:54.877Z,97721.66
2022-12-15T05:48:22.690Z,97719.72
2022-12-15T05:50:51.743Z,97731.19
2022-12-15T05:53:19.478Z,97727.44
2022-12-15T05:55:47.175Z,97731.84
2022-12-15T05:58:14.898Z,97729.41
2022-12-15T06:00:42.649Z,97737.16
2022-12-15T06:03:10.393Z,97742.19
2022-12-15T06:05:38.393Z,97742.81
2022-12-15T06:08:07.660Z,97741.03
2022-12-15T06:10:35.410Z,97743.78
2022-12-15T06:13:03.097Z,97744.41
2022-12-15T06:15:30.779Z,97748.94
2022-12-15T06:17:58.472Z,97747.16
2022-12-15T06:20:26.196Z,97743.31
2022-12-15T06:22:53.911Z,97745.25
2022-12-15T06:25:22.963Z,97752.63
2022-12-15T06:27:50.690Z,97761.41
2022-12-15T06:30:19.100Z,97760.22
2022-12-15T06:32:46.926Z,97755.72
2022-12-15T06:35:17.753Z,97757.97
2022-12-15T06:37:45.521Z,97770.53
2022-12-15T06:40:13.499Z,97771.97
2022-12-15T06:42:42.677Z,97765.56
2022-12-15T06:45:11.335Z,97764.84
2022-12-15T06:47:39.058Z,97771.09
2022-12-15T06:50:07.801Z,97768.69
2022-12-15T06:52:35.579Z,97758.25
2022-12-15T06:55:03.319Z,97763.34
2022-12-15T06:57:31.087Z,97754.44
2022-12-15T07:00:00.209Z,97748.91
2022-12-15T07:02:30.113Z,97750.66
2022-12-15T07:04:57.970Z,97759.84
2022-12-15T07:07:25.909Z,97761.94
2022-12-15T07:09:53.707Z,97767.72
2022-12-15T07:12:21.630Z,97765.63
2022-12-15T07:14:53.411Z,97768.28
2022-12-15T07:17:24.154Z,97751.47
2022-12-15T07:19:51.927Z,97753.59
2022-12-15T07:22:20.909Z,97753.94
2022-12-15T07:24:48.947Z,97758.88
2022-12-15T07:27:18.155Z,97766.69
2022-12-15T07:29:45.914Z,97773.59
2022-12-15T07:32:13.898Z,97770.00
2022-12-15T07:34:43.145Z,97774.09
2022-12-15T07:37:11.216Z,97775.72
2022-12-15T07:39:38.926Z,97780.75
2022-12-15T07:42:06.748Z,97785.16
2022-12-15T07:44:34.716Z,97776.03
2022-12-15T07:47:02.380Z,97780.97
2022-12-15T07:49:30.152Z,97790.22
2022-12-15T07:51:59.437Z,97788.78
2022-12-15T07:54:27.199Z,97781.78
2022-12-15T07:56:54.895Z,97781.66
2022-12-15T07:59:23.689Z,97780.19
2022-12-15T08:01:52.337Z,97784.16
2022-12-15T08:04:20.554Z,97774.13
2022-12-15T08:06:48.264Z,97792.31
2022-12-15T08:09:17.429Z,97797.53
2022-12-15T08:11:45.157Z,97812.16
2022-12-15T08:14:17.360Z,97826.16
2022-12-15T08:16:45.791Z,97827.31
2022-12-15T08:19:15.267Z,97833.50
2022-12-15T08:21:45.392Z,97836.75
2022-12-15T08:24:14.555Z,97833.19
2022-12-15T08:26:44.761Z,97832.47
2022-12-15T08:29:49.443Z,97835.38
2022-12-15T08:32:06.502Z,97837.22
2022-12-15T08:34:34.327Z,97826.75
2022-12-15T08:37:02.095Z,97831.34
2022-12-15T08:39:29.935Z,97831.47
2022-12-15T08:41:59.009Z,97836.28
2022-12-15T08:44:26.719Z,97836.00
2022-12-15T08:46:54.453Z,97831.34
2022-12-15T08:49:22.672Z,97838.06
2022-12-15T08:51:51.534Z,97843.97
2022-12-15T08:54:20.460Z,97853.63
2022-12-15T08:56:48.470Z,97847.78
2022-12-15T08:59:17.843Z,97842.56
2022-12-15T09:01:45.775Z,97854.84
2022-12-15T09:04:13.660Z,97852.84
2022-12-15T09:06:41.467Z,97850.38
2022-12-15T09:09:12.774Z,97850.19
2022-12-15T09:11:40.641Z,97842.16
2022-12-15T09:14:08.553Z,97832.03
2022-12-15T09:16:38.007Z,97850.88
2022-12-15T09:19:05.805Z,97839.31
2022-12-15T09:21:33.624Z,97842.97
2022-12-15T09:24:02.983Z,97852.03
2022-12-15T09:26:32.677Z,97840.53
2022-12-15T09:29:01.763Z,97844.28
2022-12-15T09:31:31.574Z,97855.28
2022-12-15T09:34:02.016Z,97844.66
2022-12-15T09:36:30.832Z,97833.31
2022-12-15T09:38:59.163Z,97845.44
2022-12-15T09:41:29.319Z,97850.97
2022-12-15T09:44:01.593Z,97831.94
2022-12-15T09:46:42.830Z,97832.38
2022-12-15T09:49:38.902Z,97837.25
2022-12-15T09:52:11.673Z,97823.50
2022-12-15T09:54:41.932Z,97832.53
2022-12-15T09:57:18.035Z,97831.47
2022-12-15T10:00:02.254Z,97838.50
2022-12-15T10:02:56.637Z,97833.69
2022-12-15T10:06:06.092Z,97837.81
2022-12-15T10:08:26.552Z,97839.56
2022-12-15T10:10:58.704Z,97835.78
2022-12-15T10:13:36.214Z,97845.91
2022-12-15T10:16:13.180Z,97838.56
2022-12-15T10:18:59.213Z,97827.59
2022-12-15T10:21:32.419Z,97841.88
2022-12-15T10:24:10.999Z,97836.66
2022-12-15T10:26:40.895Z,97832.50
2022-12-15T10:29:24.147Z,97835.19
2022-12-15T10:31:55.266Z,97847.91
2022-12-15T10:34:28.676Z,97851.59
2022-12-15T10:36:59.039Z,97846.75
2022-12-15T10:39:39.324Z,97834.63
2022-12-15T10:42:20.940Z,97827.47
2022-12-15T10:44:50.975Z,97807.78
2022-12-15T10:47:22.637Z,97803.78
2022-12-15T10:49:51.131Z,97781.06
2022-12-15T10:52:28.321Z,97777.47
2022-12-15T10:54:56.935Z,97775.34
2022-12-15T10:57:28.745Z,97755.47
2022-12-15T10:59:57.553Z,97761.25
2022-12-15T11:02:33.335Z,97765.66
2022-12-15T11:05:04.769Z,97759.81
2022-12-15T11:07:38.817Z,97755.97
2022-12-15T11:10:17.030Z,97767.34
2022-12-15T11:12:58.430Z,97757.97
2022-12-15T11:15:43.931Z,97767.72
2022-12-15T11:18:28.108Z,97773.00
2022-12-15T11:21:03.035Z,97772.88
2022-12-15T11:23:48.776Z,97778.66
2022-12-15T11:26:31.756Z,97773.56
2022-12-15T11:29:06.113Z,97775.44
2022-12-15T11:31:39.261Z,97779.25
2022-12-15T11:34:14.086Z,97770.81
2022-12-15T11:37:05.421Z,97780.50
2022-12-15T11:39:50.366Z,97785.41
2022-12-15T11:42:27.073Z,97786.88
2022-12-15T11:45:04.379Z,97785.13
2022-12-15T11:47:44.742Z,97778.91
2022-12-15T11:50:28.593Z,97762.47
2022-12-15T11:53:11.084Z,97763.38
2022-12-15T11:55:50.666Z,97743.03
2022-12-15T11:58:48.614Z,97732.41
2022-12-15T12:01:38.591Z,97715.19
2022-12-15T12:04:15.767Z,97718.69
2022-12-15T12:06:52.787Z,97719.94
2022-12-15T12:09:30.244Z,97705.69
2022-12-15T12:12:09.076Z,97704.81
2022-12-15T12:14:50.565Z,97698.03
2022-12-15T12:17:28.199Z,97692.41
2022-12-15T12:20:00.781Z,97682.16
2022-12-15T12:22:33.144Z,97669.69
2022-12-15T12:25:03.592Z,97672.59
2022-12-15T12:27:39.971Z,97673.78
2022-12-15T12:30:15.095Z,97673.84
2022-12-15T12:32:50.659Z,97670.75
2022-12-15T12:35:31.824Z,97675.47
2022-12-15T12:38:04.669Z,97678.88
2022-12-15T12:40:46.263Z,97676.59
2022-12-15T12:43:28.820Z,97673.44
2022-12-15T12:45:59.983Z,97676.38
2022-12-15T12:48:33.045Z,97672.50
2022-12-15T12:51:27.271Z,97665.34
2022-12-15T12:53:55.767Z,97666.75
2022-12-15T12:56:33.034Z,97666.28
2022-12-15T12:59:07.749Z,97654.81
2022-12-15T13:01:37.528Z,97657.19
2022-12-15T13:04:11.777Z,97643.94
2022-12-15T13:07:00.072Z,97646.91
2022-12-15T13:09:40.592Z,97639.50
2022-12-15T13:15:40.679Z,97645.91
2022-12-15T13:18:14.631Z,97643.81
2022-12-15T13:20:44.080Z,97633.00
2022-12-15T13:23:36.426Z,97622.00
2022-12-15T13:26:20.374Z,97615.06
2022-12-15T13:28:54.399Z,97622.38
2022-12-15T13:31:45.491Z,97602.00
2022-12-15T13:34:25.739Z,97603.34
2022-12-15T13:36:58.783Z,97602.00
2022-12-15T13:39:52.638Z,97594.31
2022-12-15T13:42:40.248Z,97580.78
2022-12-15T13:45:39.689Z,97585.59
2022-12-15T13:48:23.255Z,97577.38
2022-12-15T13:50:57.964Z,97595.97
2022-12-15T13:53:29.914Z,97593.91
2022-12-15T13:56:05.093Z,97595.84
2022-12-15T13:58:40.270Z,97587.53
2022-12-15T14:01:20.033Z,97593.91
2022-12-15T14:04:16.442Z,97580.03
2022-12-15T14:06:50.943Z,97597.69
2022-12-15T14:09:21.476Z,97599.81
2022-12-15T14:14:46.532Z,97593.66
2022-12-15T14:17:19.288Z,97597.63
2022-12-15T14:19:50.904Z,97592.19
2022-12-15T14:22:28.007Z,97597.00
2022-12-15T14:25:02.859Z,97599.56
2022-12-15T14:27:32.480Z,97612.94
2022-12-15T14:30:20.339Z,97614.59
2022-12-15T14:32:51.450Z,97613.72
2022-12-15T14:35:26.227Z,97613.63
2022-12-15T14:37:56.420Z,97603.66
2022-12-15T14:40:28.860Z,97607.81
2022-12-15T14:42:57.179Z,97601.09
2022-12-15T14:45:28.518Z,97604.91
2022-12-15T14:48:39.889Z,97612.19
2022-12-15T14:50:49.223Z,97611.38
2022-12-15T14:53:21.887Z,97620.88
2022-12-15T14:55:50.074Z,97622.81
2022-12-15T14:58:33.917Z,97633.72
2022-12-15T15:01:03.541Z,97622.75
2022-12-15T15:03:10.518Z,97596.56
2022-12-15T15:03:15.602Z,97642.34
2022-12-15T15:03:37.244Z,97607.81
2022-12-15T15:06:16.943Z,97599.19
2022-12-15T15:08:48.024Z,97609.59
2022-12-15T15:11:26.815Z,97599.56
2022-12-15T15:13:56.800Z,97604.56
2022-12-15T15:16:25.020Z,97605.78
2022-12-15T15:18:55.094Z,97604.94
2022-12-15T15:21:26.064Z,97608.59
2022-12-15T15:24:02.153Z,97599.97
2022-12-15T15:26:31.378Z,97599.66
2022-12-15T15:28:59.664Z,97606.22
2022-12-15T15:31:35.306Z,97604.00
2022-12-15T15:34:08.091Z,97603.69
2022-12-15T15:36:39.304Z,97595.88
2022-12-15T15:39:13.482Z,97596.16
2022-12-15T15:41:41.289Z,97592.97
2022-12-15T15:44:13.753Z,97600.78
2022-12-15T15:46:47.654Z,97617.53
2022-12-15T15:49:18.908Z,97620.41
2022-12-15T15:51:48.313Z,97617.81
2022-12-15T15:54:19.276Z,97609.66
2022-12-15T15:56:47.129Z,97616.53
2022-12-15T15:59:16.851Z,97609.69
2022-12-15T16:01:45.400Z,97616.59
2022-12-15T16:04:13.452Z,97617.56
2022-12-15T16:06:47.311Z,97619.16
2022-12-15T16:09:17.810Z,97615.41
2022-12-15T16:11:46.878Z,97615.66
2022-12-15T16:14:16.691Z,97610.91
2022-12-15T16:16:45.575Z,97607.41
2022-12-15T16:19:13.418Z,97604.41
2022-12-15T16:21:42.050Z,97607.16
2022-12-15T16:24:14.291Z,97601.41
2022-12-15T16:26:48.115Z,97600.97
2022-12-15T16:29:17.403Z,97605.13
2022-12-15T16:31:46.029Z,97607.56
2022-12-15T16:34:14.331Z,97603.66
2022-12-15T16:36:42.306Z,97591.06
2022-12-15T16:39:29.005Z,97595.13
2022-12-15T16:41:59.013Z,97607.16
2022-12-15T16:44:29.078Z,97598.59
2022-12-15T16:46:58.741Z,97591.53
2022-12-15T16:49:27.593Z,97596.84
2022-12-15T16:51:55.439Z,97598.25
2022-12-15T16:54:26.237Z,97601.56
2022-12-15T16:56:55.098Z,97595.75
2022-12-15T16:59:35.660Z,97604.19
2022-12-15T17:02:24.075Z,97599.41
2022-12-15T17:04:52.376Z,97594.16
2022-12-15T17:07:20.981Z,97595.09
2022-12-15T17:09:49.895Z,97582.06
2022-12-15T17:12:18.682Z,97579.53
2022-12-15T17:14:48.173Z,97587.31
2022-12-15T17:17:17.488Z,97582.88
2022-12-15T17:20:05.010Z,97572.06
2022-12-15T17:22:33.777Z,97578.22
2022-12-15T17:25:01.768Z,97580.16
2022-12-15T17:27:31.520Z,97572.94
2022-12-15T17:30:01.994Z,97560.84
2022-12-15T17:32:29.793Z,97559.22
2022-12-15T17:34:58.061Z,97557.25
2022-12-15T17:37:29.179Z,97567.56
2022-12-15T17:39:59.683Z,97565.31
2022-12-15T17:42:27.482Z,97567.09
2022-12-15T17:44:55.324Z,97561.53
2022-12-15T17:47:25.386Z,97561.31
2022-12-15T17:49:53.192Z,97563.03
2022-12-15T17:52:27.190Z,97562.59
2022-12-15T17:54:55.937Z,97547.16
2022-12-15T17:57:23.965Z,97549.28
2022-12-15T17:59:51.666Z,97556.28
2022-12-15T18:02:19.758Z,97559.81
2022-12-15T18:04:48.966Z,97569.63
2022-12-15T18:07:19.163Z,97562.66
2022-12-15T18:09:47.771Z,97568.31
2022-12-15T18:12:19.528Z,97557.66
2022-12-15T18:14:47.823Z,97562.94
2022-12-15T18:17:15.808Z,97561.13
2022-12-15T18:19:43.575Z,97554.69
2022-12-15T18:22:15.481Z,97556.81
2022-12-15T18:24:43.389Z,97562.47
2022-12-15T18:27:21.026Z,97553.88
2022-12-15T18:29:48.758Z,97548.50
2022-12-15T18:32:20.555Z,97556.19
2022-12-15T18:34:48.274Z,97551.28
2022-12-15T18:37:18.840Z,97541.72
2022-12-15T18:39:47.462Z,97536.50
2022-12-15T18:42:16.246Z,97532.22
2022-12-15T18:44:48.761Z,97533.97
2022-12-15T18:47:18.356Z,97534.94
2022-12-15T18:49:46.123Z,97532.53
2022-12-15T18:52:18.778Z,97535.41
2022-12-15T18:54:48.132Z,97519.22
2022-12-15T18:57:32.417Z,97526.53
2022-12-15T19:00:04.266Z,97526.88
2022-12-15T19:02:32.170Z,97536.88
2022-12-15T19:05:00.027Z,97535.09
2022-12-15T19:07:29.207Z,97524.63
2022-12-15T19:09:57.166Z,97530.47
2022-12-15T19:12:25.441Z,97517.31
2022-12-15T19:14:55.257Z,97524.78
2022-12-15T19:17:42.348Z,97522.88
2022-12-15T19:20:34.827Z,97513.63
2022-12-15T19:23:04.571Z,97506.50
2022-12-15T19:25:33.238Z,97497.75
2022-12-15T19:28:02.074Z,97492.63
2022-12-15T19:30:37.082Z,97492.31
2022-12-15T19:33:09.322Z,97489.78
2022-12-15T19:35:38.003Z,97494.56
2022-12-15T19:38:08.524Z,97487.88
2022-12-15T19:40:37.689Z,97488.84
2022-12-15T19:43:05.571Z,97486.13
2022-12-15T19:45:34.491Z,97494.53
2022-12-15T19:48:02.406Z,97500.13
2022-12-15T19:50:35.994Z,97507.50
2022-12-15T19:53:11.003Z,97507.22
2022-12-15T19:55:39.722Z,97492.59
2022-12-15T19:58:28.935Z,97514.19
2022-12-15T20:00:58.805Z,97520.38
2022-12-15T20:03:27.443Z,97507.66
2022-12-15T20:05:57.438Z,97509.94
2022-12-15T20:08:28.746Z,97510.50
2022-12-15T20:10:57.862Z,97500.13
2022-12-15T20:13:26.322Z,97497.53
2022-12-15T20:15:54.712Z,97503.13
2022-12-15T20:18:22.756Z,97503.22
2022-12-15T20:20:51.015Z,97503.22
2022-12-15T20:23:22.004Z,97504.78
2022-12-15T20:25:51.190Z,97502.06
2022-12-15T20:28:22.559Z,97499.63
2022-12-15T20:30:51.089Z,97503.31
2022-12-15T20:33:19.637Z,97503.25
2022-12-15T20:35:49.539Z,97518.66
2022-12-15T20:38:25.919Z,97520.34
2022-12-15T20:40:55.781Z,97521.97
2022-12-15T20:43:24.339Z,97511.28
2022-12-15T20:46:01.544Z,97513.63
2022-12-15T20:48:30.976Z,97514.69
2022-12-15T20:51:01.846Z,97518.88
2022-12-15T20:53:32.491Z,97519.38
2022-12-15T20:56:01.870Z,97514.72
2022-12-15T20:58:33.133Z,97517.59
2022-12-15T21:01:01.501Z,97517.28
2022-12-15T21:03:31.857Z,97524.13
2022-12-15T21:06:00.701Z,97523.78
2022-12-15T21:08:30.653Z,97528.09
2022-12-15T21:11:03.553Z,97522.81
2022-12-15T21:13:35.422Z,97523.34
2022-12-15T21:16:03.426Z,97519.06
2022-12-15T21:21:20.915Z,97515.06
2022-12-15T21:23:49.685Z,97518.13
2022-12-15T21:26:22.171Z,97522.16
2022-12-15T21:28:51.616Z,97516.59
2022-12-15T21:31:19.611Z,97505.44
2022-12-15T21:33:47.503Z,97509.59
2022-12-15T21:36:16.469Z,97503.75
2022-12-15T21:38:46.932Z,97501.22
2022-12-15T21:41:16.900Z,97494.41
2022-12-15T21:43:46.292Z,97496.47
2022-12-15T21:46:15.974Z,97490.94
2022-12-15T21:49:01.436Z,97497.09
2022-12-15T21:51:32.375Z,97498.47
2022-12-15T21:54:00.421Z,97504.91
2022-12-15T21:56:29.229Z,97506.13
2022-12-15T21:58:59.068Z,97505.41
2022-12-15T22:01:30.616Z,97497.91
2022-12-15T22:04:02.268Z,97496.66
2022-12-15T22:06:31.303Z,97501.25
2022-12-15T22:08:59.887Z,97506.91
2022-12-15T22:11:30.097Z,97512.00
2022-12-15T22:14:02.856Z,97511.50
2022-12-15T22:16:30.815Z,97520.53
2022-12-15T22:18:59.378Z,97519.91
2022-12-15T22:21:27.241Z,97525.19
2022-12-15T22:23:55.156Z,97522.25
2022-12-15T22:26:24.246Z,97520.63
2022-12-15T22:28:52.349Z,97516.38
2022-12-15T22:31:24.303Z,97527.28
2022-12-15T22:33:52.502Z,97525.28
2022-12-15T22:36:22.873Z,97527.28
2022-12-15T22:38:50.704Z,97523.13
2022-12-15T22:41:23.182Z,97527.91
2022-12-15T22:43:54.019Z,97535.19
2022-12-15T22:46:25.717Z,97538.06
2022-12-15T22:48:54.982Z,97541.44
2022-12-15T22:51:23.010Z,97541.44
2022-12-15T22:53:50.832Z,97535.97
2022-12-15T22:56:25.789Z,97526.84
2022-12-15T22:58:59.669Z,97537.53
2022-12-15T23:01:29.017Z,97527.75
2022-12-15T23:03:57.086Z,97529.19
2022-12-15T23:06:24.995Z,97530.13
2022-12-15T23:08:55.977Z,97540.66
2022-12-15T23:11:38.653Z,97530.03
2022-12-15T23:14:07.606Z,97522.81
2022-12-15T23:16:36.183Z,97535.16
2022-12-15T23:19:04.890Z,97526.31
2022-12-15T23:21:33.248Z,97524.44
2022-12-15T23:24:01.269Z,97522.50
2022-12-15T23:26:29.016Z,97521.56
2022-12-15T23:28:56.859Z,97524.97
2022-12-15T23:31:24.684Z,97525.47
2022-12-15T23:33:54.026Z,97534.84
2022-12-15T23:36:21.727Z,97528.94
2022-12-15T23:38:50.011Z,97527.91
2022-12-15T23:41:19.517Z,97528.31
2022-12-15T23:43:47.490Z,97537.63
2022-12-15T23:46:15.270Z,97530.09
2022-12-15T23:48:44.616Z,97534.00
2022-12-15T23:51:16.137Z,97537.94
2022-12-15T23:53:45.171Z,97533.75
2022-12-15T23:56:14.594Z,97533.94
2022-12-15T23:58:43.795Z,97531.00
